sensor_id;sensor_type;location;lat;lon;timestamp;P1;durP1;ratioP1;P2;durP2;ratioP2
2898;SDS011;1459;50.864;6.438;2022-09-03T00:01:21;2.55;;;2.00;;
2898;SDS011;1459;50.864;6.438;2022-09-03T00:03:51;5.05;;;2.10;;
2898;SDS011;1459;50.864;6.438;2022-09-03T00:06:25;6.50;;;2.35;;
2898;SDS011;1459;50.864;6.438;2022-09-03T00:08:57;2.53;;;2.00;;
2898;SDS011;1459;50.864;6.438;2022-09-03T00:11:29;5.28;;;2.28;;
2898;SDS011;1459;50.864;6.438;2022-09-03T00:14:04;2.50;;;2.15;;
2898;SDS011;1459;50.864;6.438;2022-09-03T00:16:37;4.18;;;2.45;;
2898;SDS011;1459;50.864;6.438;2022-09-03T00:19:09;4.05;;;2.38;;
2898;SDS011;1459;50.864;6.438;2022-09-03T00:21:43;2.60;;;2.40;;
2898;SDS011;1459;50.864;6.438;2022-09-03T00:24:13;2.85;;;2.30;;
2898;SDS011;1459;50.864;6.438;2022-09-03T00:26:45;3.63;;;2.10;;
2898;SDS011;1459;50.864;6.438;2022-09-03T00:29:19;3.75;;;2.40;;
2898;SDS011;1459;50.864;6.438;2022-09-03T00:31:52;3.10;;;2.15;;
2898;SDS011;1459;50.864;6.438;2022-09-03T00:34:23;2.40;;;1.77;;
2898;SDS011;1459;50.864;6.438;2022-09-03T00:36:55;2.47;;;2.17;;
2898;SDS011;1459;50.864;6.438;2022-09-03T00:39:23;9.57;;;2.47;;
2898;SDS011;1459;50.864;6.438;2022-09-03T00:41:54;2.78;;;2.20;;
2898;SDS011;1459;50.864;6.438;2022-09-03T00:44:43;5.78;;;2.20;;
2898;SDS011;1459;50.864;6.438;2022-09-03T00:47:28;7.85;;;2.20;;
2898;SDS011;1459;50.864;6.438;2022-09-03T00:50:03;2.42;;;2.00;;
2898;SDS011;1459;50.864;6.438;2022-09-03T00:52:38;3.65;;;1.80;;
2898;SDS011;1459;50.864;6.438;2022-09-03T00:55:13;2.33;;;2.10;;
2898;SDS011;1459;50.864;6.438;2022-09-03T00:57:56;2.25;;;2.05;;
2898;SDS011;1459;50.864;6.438;2022-09-03T01:00:37;3.85;;;2.33;;
2898;SDS011;1459;50.864;6.438;2022-09-03T01:03:13;2.53;;;1.80;;
2898;SDS011;1459;50.864;6.438;2022-09-03T01:05:52;3.88;;;2.10;;
2898;SDS011;1459;50.864;6.438;2022-09-03T01:08:36;4.18;;;2.38;;
2898;SDS011;1459;50.864;6.438;2022-09-03T01:11:29;2.17;;;1.77;;
2898;SDS011;1459;50.864;6.438;2022-09-03T01:14:09;3.00;;;2.58;;
2898;SDS011;1459;50.864;6.438;2022-09-03T01:16:43;3.83;;;1.80;;
2898;SDS011;1459;50.864;6.438;2022-09-03T01:19:24;1.83;;;1.65;;
2898;SDS011;1459;50.864;6.438;2022-09-03T01:22:18;3.35;;;2.13;;
2898;SDS011;1459;50.864;6.438;2022-09-03T01:25:14;3.72;;;2.05;;
2898;SDS011;1459;50.864;6.438;2022-09-03T01:27:58;2.08;;;1.90;;
2898;SDS011;1459;50.864;6.438;2022-09-03T01:30:35;2.20;;;1.80;;
2898;SDS011;1459;50.864;6.438;2022-09-03T01:33:08;2.78;;;2.00;;
2898;SDS011;1459;50.864;6.438;2022-09-03T01:35:42;2.35;;;2.10;;
2898;SDS011;1459;50.864;6.438;2022-09-03T01:38:15;3.28;;;1.80;;
2898;SDS011;1459;50.864;6.438;2022-09-03T01:40:51;4.82;;;2.00;;
2898;SDS011;1459;50.864;6.438;2022-09-03T01:43:51;3.60;;;1.70;;
2898;SDS011;1459;50.864;6.438;2022-09-03T01:46:24;2.65;;;2.05;;
2898;SDS011;1459;50.864;6.438;2022-09-03T01:48:55;3.00;;;1.90;;
2898;SDS011;1459;50.864;6.438;2022-09-03T01:51:31;3.47;;;1.90;;
2898;SDS011;1459;50.864;6.438;2022-09-03T01:56:52;3.40;;;1.77;;
2898;SDS011;1459;50.864;6.438;2022-09-03T01:59:56;3.55;;;1.88;;
2898;SDS011;1459;50.864;6.438;2022-09-03T02:02:27;2.95;;;1.85;;
2898;SDS011;1459;50.864;6.438;2022-09-03T02:04:57;2.72;;;2.05;;
2898;SDS011;1459;50.864;6.438;2022-09-03T02:07:31;2.30;;;1.77;;
2898;SDS011;1459;50.864;6.438;2022-09-03T02:10:00;3.05;;;1.80;;
2898;SDS011;1459;50.864;6.438;2022-09-03T02:12:29;2.95;;;2.00;;
2898;SDS011;1459;50.864;6.438;2022-09-03T02:14:59;3.88;;;1.98;;
2898;SDS011;1459;50.864;6.438;2022-09-03T02:17:30;2.33;;;1.83;;
2898;SDS011;1459;50.864;6.438;2022-09-03T02:19:57;1.90;;;1.50;;
2898;SDS011;1459;50.864;6.438;2022-09-03T02:22:29;2.90;;;2.20;;
2898;SDS011;1459;50.864;6.438;2022-09-03T02:24:56;2.13;;;1.88;;
2898;SDS011;1459;50.864;6.438;2022-09-03T02:27:23;2.60;;;2.13;;
2898;SDS011;1459;50.864;6.438;2022-09-03T02:29:50;2.22;;;1.92;;
2898;SDS011;1459;50.864;6.438;2022-09-03T02:32:18;2.40;;;1.90;;
2898;SDS011;1459;50.864;6.438;2022-09-03T02:34:45;2.97;;;2.05;;
2898;SDS011;1459;50.864;6.438;2022-09-03T02:37:13;5.45;;;2.55;;
2898;SDS011;1459;50.864;6.438;2022-09-03T02:39:42;4.30;;;2.15;;
2898;SDS011;1459;50.864;6.438;2022-09-03T02:42:09;3.55;;;2.65;;
2898;SDS011;1459;50.864;6.438;2022-09-03T02:44:39;2.30;;;1.95;;
2898;SDS011;1459;50.864;6.438;2022-09-03T02:47:09;2.67;;;1.88;;
2898;SDS011;1459;50.864;6.438;2022-09-03T02:49:37;1.92;;;1.50;;
2898;SDS011;1459;50.864;6.438;2022-09-03T02:52:06;1.85;;;1.65;;
2898;SDS011;1459;50.864;6.438;2022-09-03T02:54:36;2.45;;;2.10;;
2898;SDS011;1459;50.864;6.438;2022-09-03T02:57:04;2.80;;;2.20;;
2898;SDS011;1459;50.864;6.438;2022-09-03T02:59:32;2.10;;;1.77;;
2898;SDS011;1459;50.864;6.438;2022-09-03T03:01:59;1.95;;;1.65;;
2898;SDS011;1459;50.864;6.438;2022-09-03T03:04:26;3.72;;;2.00;;
2898;SDS011;1459;50.864;6.438;2022-09-03T03:06:56;2.75;;;1.92;;
2898;SDS011;1459;50.864;6.438;2022-09-03T03:09:23;4.20;;;2.00;;
2898;SDS011;1459;50.864;6.438;2022-09-03T03:11:53;3.80;;;1.63;;
2898;SDS011;1459;50.864;6.438;2022-09-03T03:14:20;2.95;;;1.80;;
2898;SDS011;1459;50.864;6.438;2022-09-03T03:16:48;1.60;;;1.45;;
2898;SDS011;1459;50.864;6.438;2022-09-03T03:19:15;2.90;;;1.85;;
2898;SDS011;1459;50.864;6.438;2022-09-03T03:21:42;2.25;;;2.05;;
2898;SDS011;1459;50.864;6.438;2022-09-03T03:24:11;2.00;;;1.60;;
2898;SDS011;1459;50.864;6.438;2022-09-03T03:26:38;5.50;;;1.90;;
2898;SDS011;1459;50.864;6.438;2022-09-03T03:29:05;2.95;;;1.95;;
2898;SDS011;1459;50.864;6.438;2022-09-03T03:31:32;3.80;;;2.13;;
2898;SDS011;1459;50.864;6.438;2022-09-03T03:34:00;1.85;;;1.60;;
2898;SDS011;1459;50.864;6.438;2022-09-03T03:36:29;2.00;;;1.80;;
2898;SDS011;1459;50.864;6.438;2022-09-03T03:38:57;5.00;;;2.05;;
2898;SDS011;1459;50.864;6.438;2022-09-03T03:41:27;3.70;;;1.80;;
2898;SDS011;1459;50.864;6.438;2022-09-03T03:43:56;3.35;;;1.88;;
2898;SDS011;1459;50.864;6.438;2022-09-03T03:46:27;1.95;;;1.75;;
2898;SDS011;1459;50.864;6.438;2022-09-03T03:48:56;2.55;;;1.60;;
2898;SDS011;1459;50.864;6.438;2022-09-03T03:51:26;4.30;;;1.80;;
2898;SDS011;1459;50.864;6.438;2022-09-03T03:53:55;2.40;;;2.00;;
2898;SDS011;1459;50.864;6.438;2022-09-03T03:56:23;3.58;;;1.92;;
2898;SDS011;1459;50.864;6.438;2022-09-03T03:58:53;3.17;;;2.25;;
2898;SDS011;1459;50.864;6.438;2022-09-03T04:01:20;2.25;;;1.70;;
2898;SDS011;1459;50.864;6.438;2022-09-03T04:03:49;1.70;;;1.35;;
2898;SDS011;1459;50.864;6.438;2022-09-03T04:06:17;3.25;;;1.88;;
2898;SDS011;1459;50.864;6.438;2022-09-03T04:08:46;3.20;;;1.80;;
2898;SDS011;1459;50.864;6.438;2022-09-03T04:11:15;2.20;;;1.88;;
2898;SDS011;1459;50.864;6.438;2022-09-03T04:13:45;2.47;;;1.55;;
2898;SDS011;1459;50.864;6.438;2022-09-03T04:16:14;2.90;;;1.80;;
2898;SDS011;1459;50.864;6.438;2022-09-03T04:18:43;4.10;;;1.65;;
2898;SDS011;1459;50.864;6.438;2022-09-03T04:21:13;2.60;;;1.77;;
2898;SDS011;1459;50.864;6.438;2022-09-03T04:23:42;2.05;;;1.55;;
2898;SDS011;1459;50.864;6.438;2022-09-03T04:26:11;2.83;;;2.20;;
2898;SDS011;1459;50.864;6.438;2022-09-03T04:28:40;4.13;;;1.90;;
2898;SDS011;1459;50.864;6.438;2022-09-03T04:31:08;3.45;;;1.58;;
2898;SDS011;1459;50.864;6.438;2022-09-03T04:33:37;3.42;;;1.95;;
2898;SDS011;1459;50.864;6.438;2022-09-03T04:36:06;1.98;;;1.75;;
2898;SDS011;1459;50.864;6.438;2022-09-03T04:38:34;2.28;;;1.77;;
2898;SDS011;1459;50.864;6.438;2022-09-03T04:41:03;3.17;;;1.95;;
2898;SDS011;1459;50.864;6.438;2022-09-03T04:43:31;2.28;;;1.40;;
2898;SDS011;1459;50.864;6.438;2022-09-03T04:45:58;3.30;;;2.00;;
2898;SDS011;1459;50.864;6.438;2022-09-03T04:48:26;1.90;;;1.65;;
2898;SDS011;1459;50.864;6.438;2022-09-03T04:51:00;2.03;;;1.75;;
2898;SDS011;1459;50.864;6.438;2022-09-03T04:53:30;5.00;;;1.60;;
2898;SDS011;1459;50.864;6.438;2022-09-03T04:55:57;2.30;;;1.70;;
2898;SDS011;1459;50.864;6.438;2022-09-03T04:58:24;3.67;;;1.75;;
2898;SDS011;1459;50.864;6.438;2022-09-03T05:00:52;3.28;;;2.03;;
2898;SDS011;1459;50.864;6.438;2022-09-03T05:03:19;3.25;;;1.60;;
2898;SDS011;1459;50.864;6.438;2022-09-03T05:05:53;3.25;;;1.80;;
2898;SDS011;1459;50.864;6.438;2022-09-03T05:08:22;2.60;;;1.63;;
2898;SDS011;1459;50.864;6.438;2022-09-03T05:10:56;4.25;;;1.75;;
2898;SDS011;1459;50.864;6.438;2022-09-03T05:13:25;3.13;;;1.58;;
2898;SDS011;1459;50.864;6.438;2022-09-03T05:15:52;2.47;;;1.90;;
2898;SDS011;1459;50.864;6.438;2022-09-03T05:18:24;1.95;;;1.58;;
2898;SDS011;1459;50.864;6.438;2022-09-03T05:20:56;2.55;;;2.00;;
2898;SDS011;1459;50.864;6.438;2022-09-03T05:23:26;4.15;;;1.80;;
2898;SDS011;1459;50.864;6.438;2022-09-03T05:25:54;3.60;;;1.90;;
2898;SDS011;1459;50.864;6.438;2022-09-03T05:28:22;3.35;;;1.80;;
2898;SDS011;1459;50.864;6.438;2022-09-03T05:30:57;3.00;;;2.13;;
2898;SDS011;1459;50.864;6.438;2022-09-03T05:33:25;3.22;;;1.73;;
2898;SDS011;1459;50.864;6.438;2022-09-03T05:35:52;6.00;;;1.80;;
2898;SDS011;1459;50.864;6.438;2022-09-03T05:38:19;4.43;;;1.70;;
2898;SDS011;1459;50.864;6.438;2022-09-03T05:40:48;2.22;;;1.60;;
2898;SDS011;1459;50.864;6.438;2022-09-03T05:43:15;1.95;;;1.40;;
2898;SDS011;1459;50.864;6.438;2022-09-03T05:45:42;1.83;;;1.50;;
2898;SDS011;1459;50.864;6.438;2022-09-03T05:48:09;3.38;;;1.70;;
2898;SDS011;1459;50.864;6.438;2022-09-03T05:50:36;1.50;;;1.40;;
2898;SDS011;1459;50.864;6.438;2022-09-03T05:53:03;1.77;;;1.63;;
2898;SDS011;1459;50.864;6.438;2022-09-03T05:55:30;2.45;;;1.50;;
2898;SDS011;1459;50.864;6.438;2022-09-03T05:57:59;3.55;;;1.35;;
2898;SDS011;1459;50.864;6.438;2022-09-03T06:00:26;2.28;;;1.50;;
2898;SDS011;1459;50.864;6.438;2022-09-03T06:02:53;3.30;;;1.80;;
2898;SDS011;1459;50.864;6.438;2022-09-03T06:05:20;2.45;;;1.65;;
2898;SDS011;1459;50.864;6.438;2022-09-03T06:07:47;2.13;;;1.73;;
2898;SDS011;1459;50.864;6.438;2022-09-03T06:10:14;2.33;;;1.70;;
2898;SDS011;1459;50.864;6.438;2022-09-03T06:12:42;2.33;;;1.40;;
2898;SDS011;1459;50.864;6.438;2022-09-03T06:15:15;5.70;;;1.20;;
2898;SDS011;1459;50.864;6.438;2022-09-03T06:17:42;2.83;;;1.50;;
2898;SDS011;1459;50.864;6.438;2022-09-03T06:20:09;3.58;;;1.50;;
2898;SDS011;1459;50.864;6.438;2022-09-03T06:22:36;3.58;;;1.60;;
2898;SDS011;1459;50.864;6.438;2022-09-03T06:25:04;2.83;;;1.45;;
2898;SDS011;1459;50.864;6.438;2022-09-03T06:27:31;2.78;;;1.50;;
2898;SDS011;1459;50.864;6.438;2022-09-03T06:29:58;2.55;;;1.60;;
2898;SDS011;1459;50.864;6.438;2022-09-03T06:32:27;2.65;;;1.50;;
2898;SDS011;1459;50.864;6.438;2022-09-03T06:34:54;1.50;;;1.35;;
2898;SDS011;1459;50.864;6.438;2022-09-03T06:37:23;3.58;;;1.50;;
2898;SDS011;1459;50.864;6.438;2022-09-03T06:39:50;2.58;;;1.35;;
2898;SDS011;1459;50.864;6.438;2022-09-03T06:42:18;1.40;;;1.30;;
2898;SDS011;1459;50.864;6.438;2022-09-03T06:44:46;2.20;;;1.60;;
2898;SDS011;1459;50.864;6.438;2022-09-03T06:47:15;2.30;;;1.30;;
2898;SDS011;1459;50.864;6.438;2022-09-03T06:49:43;1.92;;;1.58;;
2898;SDS011;1459;50.864;6.438;2022-09-03T06:52:10;2.40;;;1.60;;
2898;SDS011;1459;50.864;6.438;2022-09-03T06:54:37;2.88;;;1.45;;
2898;SDS011;1459;50.864;6.438;2022-09-03T06:57:04;3.60;;;1.40;;
2898;SDS011;1459;50.864;6.438;2022-09-03T06:59:33;4.38;;;1.45;;
2898;SDS011;1459;50.864;6.438;2022-09-03T07:02:00;4.18;;;1.60;;
2898;SDS011;1459;50.864;6.438;2022-09-03T07:04:27;2.72;;;1.80;;
2898;SDS011;1459;50.864;6.438;2022-09-03T07:06:57;1.73;;;1.23;;
2898;SDS011;1459;50.864;6.438;2022-09-03T07:09:24;3.70;;;1.67;;
2898;SDS011;1459;50.864;6.438;2022-09-03T07:11:52;2.88;;;1.27;;
2898;SDS011;1459;50.864;6.438;2022-09-03T07:14:20;2.33;;;1.25;;
2898;SDS011;1459;50.864;6.438;2022-09-03T07:16:48;3.25;;;1.67;;
2898;SDS011;1459;50.864;6.438;2022-09-03T07:19:15;1.70;;;1.35;;
2898;SDS011;1459;50.864;6.438;2022-09-03T07:21:43;2.75;;;1.33;;
2898;SDS011;1459;50.864;6.438;2022-09-03T07:24:11;3.15;;;1.50;;
2898;SDS011;1459;50.864;6.438;2022-09-03T07:26:39;12.05;;;1.65;;
2898;SDS011;1459;50.864;6.438;2022-09-03T07:29:08;4.03;;;1.55;;
2898;SDS011;1459;50.864;6.438;2022-09-03T07:31:37;2.60;;;1.67;;
2898;SDS011;1459;50.864;6.438;2022-09-03T07:34:05;2.70;;;1.83;;
2898;SDS011;1459;50.864;6.438;2022-09-03T07:36:35;1.92;;;1.27;;
2898;SDS011;1459;50.864;6.438;2022-09-03T07:39:05;3.35;;;1.20;;
2898;SDS011;1459;50.864;6.438;2022-09-03T07:41:33;5.40;;;1.50;;
2898;SDS011;1459;50.864;6.438;2022-09-03T07:44:00;2.03;;;1.00;;
2898;SDS011;1459;50.864;6.438;2022-09-03T07:46:30;4.15;;;1.80;;
2898;SDS011;1459;50.864;6.438;2022-09-03T07:48:58;1.77;;;1.30;;
2898;SDS011;1459;50.864;6.438;2022-09-03T07:51:27;2.15;;;1.50;;
2898;SDS011;1459;50.864;6.438;2022-09-03T07:53:56;1.75;;;1.50;;
2898;SDS011;1459;50.864;6.438;2022-09-03T07:56:24;2.38;;;1.30;;
2898;SDS011;1459;50.864;6.438;2022-09-03T07:58:56;2.97;;;1.40;;
2898;SDS011;1459;50.864;6.438;2022-09-03T08:01:25;2.40;;;1.38;;
2898;SDS011;1459;50.864;6.438;2022-09-03T08:03:55;5.13;;;1.48;;
2898;SDS011;1459;50.864;6.438;2022-09-03T08:06:23;1.90;;;1.35;;
2898;SDS011;1459;50.864;6.438;2022-09-03T08:08:55;1.85;;;1.27;;
2898;SDS011;1459;50.864;6.438;2022-09-03T08:11:24;2.22;;;1.50;;
2898;SDS011;1459;50.864;6.438;2022-09-03T08:13:53;2.25;;;1.60;;
2898;SDS011;1459;50.864;6.438;2022-09-03T08:16:27;1.88;;;1.40;;
2898;SDS011;1459;50.864;6.438;2022-09-03T08:18:55;4.47;;;1.25;;
2898;SDS011;1459;50.864;6.438;2022-09-03T08:21:22;2.25;;;1.60;;
2898;SDS011;1459;50.864;6.438;2022-09-03T08:23:50;2.58;;;1.42;;
2898;SDS011;1459;50.864;6.438;2022-09-03T08:26:19;7.82;;;1.45;;
2898;SDS011;1459;50.864;6.438;2022-09-03T08:28:47;3.72;;;1.60;;
2898;SDS011;1459;50.864;6.438;2022-09-03T08:31:15;5.55;;;1.65;;
2898;SDS011;1459;50.864;6.438;2022-09-03T08:33:46;3.60;;;1.92;;
2898;SDS011;1459;50.864;6.438;2022-09-03T08:36:15;2.55;;;1.65;;
2898;SDS011;1459;50.864;6.438;2022-09-03T08:38:44;2.75;;;1.77;;
2898;SDS011;1459;50.864;6.438;2022-09-03T08:41:13;2.15;;;1.70;;
2898;SDS011;1459;50.864;6.438;2022-09-03T08:43:48;3.63;;;1.67;;
2898;SDS011;1459;50.864;6.438;2022-09-03T08:46:31;2.80;;;1.75;;
2898;SDS011;1459;50.864;6.438;2022-09-03T08:49:06;2.42;;;1.98;;
2898;SDS011;1459;50.864;6.438;2022-09-03T08:51:35;2.28;;;1.73;;
2898;SDS011;1459;50.864;6.438;2022-09-03T08:54:04;2.35;;;1.85;;
2898;SDS011;1459;50.864;6.438;2022-09-03T08:56:35;2.58;;;2.10;;
2898;SDS011;1459;50.864;6.438;2022-09-03T08:59:06;2.72;;;1.98;;
2898;SDS011;1459;50.864;6.438;2022-09-03T09:01:37;5.32;;;1.95;;
2898;SDS011;1459;50.864;6.438;2022-09-03T09:04:19;4.50;;;2.00;;
2898;SDS011;1459;50.864;6.438;2022-09-03T09:06:57;3.35;;;1.67;;
2898;SDS011;1459;50.864;6.438;2022-09-03T09:09:32;3.25;;;1.70;;
2898;SDS011;1459;50.864;6.438;2022-09-03T09:12:04;4.07;;;2.10;;
2898;SDS011;1459;50.864;6.438;2022-09-03T09:14:42;13.07;;;2.73;;
2898;SDS011;1459;50.864;6.438;2022-09-03T09:17:29;3.57;;;2.20;;
2898;SDS011;1459;50.864;6.438;2022-09-03T09:20:29;30.65;;;6.82;;
2898;SDS011;1459;50.864;6.438;2022-09-03T09:23:02;10.13;;;3.07;;
2898;SDS011;1459;50.864;6.438;2022-09-03T09:25:31;2.80;;;2.03;;
2898;SDS011;1459;50.864;6.438;2022-09-03T09:28:06;3.47;;;2.50;;
2898;SDS011;1459;50.864;6.438;2022-09-03T09:30:41;4.40;;;1.97;;
2898;SDS011;1459;50.864;6.438;2022-09-03T09:33:11;7.82;;;3.30;;
2898;SDS011;1459;50.864;6.438;2022-09-03T09:35:40;2.70;;;2.17;;
2898;SDS011;1459;50.864;6.438;2022-09-03T09:38:07;2.90;;;1.88;;
2898;SDS011;1459;50.864;6.438;2022-09-03T09:40:35;2.20;;;2.00;;
2898;SDS011;1459;50.864;6.438;2022-09-03T09:43:07;6.40;;;2.33;;
2898;SDS011;1459;50.864;6.438;2022-09-03T09:45:36;12.43;;;2.60;;
2898;SDS011;1459;50.864;6.438;2022-09-03T09:48:09;22.20;;;3.83;;
2898;SDS011;1459;50.864;6.438;2022-09-03T09:50:40;45.50;;;7.20;;
2898;SDS011;1459;50.864;6.438;2022-09-03T09:53:08;19.17;;;3.50;;
2898;SDS011;1459;50.864;6.438;2022-09-03T09:55:50;13.80;;;3.63;;
2898;SDS011;1459;50.864;6.438;2022-09-03T09:58:20;28.00;;;4.80;;
2898;SDS011;1459;50.864;6.438;2022-09-03T10:00:55;27.23;;;4.77;;
2898;SDS011;1459;50.864;6.438;2022-09-03T10:03:23;7.37;;;2.10;;
2898;SDS011;1459;50.864;6.438;2022-09-03T10:05:59;3.30;;;2.00;;
2898;SDS011;1459;50.864;6.438;2022-09-03T10:08:49;2.60;;;1.70;;
2898;SDS011;1459;50.864;6.438;2022-09-03T10:11:18;5.07;;;2.07;;
2898;SDS011;1459;50.864;6.438;2022-09-03T10:13:49;4.50;;;2.43;;
2898;SDS011;1459;50.864;6.438;2022-09-03T10:16:21;2.67;;;1.53;;
2898;SDS011;1459;50.864;6.438;2022-09-03T10:18:56;3.00;;;2.07;;
2898;SDS011;1459;50.864;6.438;2022-09-03T10:21:30;3.70;;;2.00;;
2898;SDS011;1459;50.864;6.438;2022-09-03T10:24:04;3.23;;;1.90;;
2898;SDS011;1459;50.864;6.438;2022-09-03T10:26:51;2.10;;;1.77;;
2898;SDS011;1459;50.864;6.438;2022-09-03T10:29:20;3.30;;;2.40;;
2898;SDS011;1459;50.864;6.438;2022-09-03T10:31:52;2.70;;;2.00;;
2898;SDS011;1459;50.864;6.438;2022-09-03T10:34:31;6.80;;;2.10;;
2898;SDS011;1459;50.864;6.438;2022-09-03T10:37:12;5.30;;;2.23;;
2898;SDS011;1459;50.864;6.438;2022-09-03T10:42:45;2.50;;;1.97;;
2898;SDS011;1459;50.864;6.438;2022-09-03T10:45:18;3.10;;;2.10;;
2898;SDS011;1459;50.864;6.438;2022-09-03T10:48:01;3.63;;;2.13;;
2898;SDS011;1459;50.864;6.438;2022-09-03T10:50:51;2.40;;;2.20;;
2898;SDS011;1459;50.864;6.438;2022-09-03T10:53:36;3.83;;;2.10;;
2898;SDS011;1459;50.864;6.438;2022-09-03T10:56:16;4.83;;;1.80;;
2898;SDS011;1459;50.864;6.438;2022-09-03T10:58:53;5.00;;;1.60;;
2898;SDS011;1459;50.864;6.438;2022-09-03T11:01:31;5.77;;;2.40;;
2898;SDS011;1459;50.864;6.438;2022-09-03T11:04:07;3.20;;;2.07;;
2898;SDS011;1459;50.864;6.438;2022-09-03T11:06:46;2.73;;;2.53;;
2898;SDS011;1459;50.864;6.438;2022-09-03T11:09:19;4.00;;;1.77;;
2898;SDS011;1459;50.864;6.438;2022-09-03T11:11:52;2.70;;;2.50;;
2898;SDS011;1459;50.864;6.438;2022-09-03T11:14:27;2.20;;;2.00;;
2898;SDS011;1459;50.864;6.438;2022-09-03T11:17:06;2.73;;;1.80;;
2898;SDS011;1459;50.864;6.438;2022-09-03T11:19:41;4.03;;;2.67;;
2898;SDS011;1459;50.864;6.438;2022-09-03T11:22:15;3.70;;;2.57;;
2898;SDS011;1459;50.864;6.438;2022-09-03T11:24:48;5.93;;;1.90;;
2898;SDS011;1459;50.864;6.438;2022-09-03T11:27:21;2.57;;;1.80;;
2898;SDS011;1459;50.864;6.438;2022-09-03T11:29:58;4.40;;;1.97;;
2898;SDS011;1459;50.864;6.438;2022-09-03T11:32:38;5.30;;;2.33;;
2898;SDS011;1459;50.864;6.438;2022-09-03T11:35:27;3.90;;;2.13;;
2898;SDS011;1459;50.864;6.438;2022-09-03T11:38:03;6.23;;;2.53;;
2898;SDS011;1459;50.864;6.438;2022-09-03T11:40:37;3.50;;;2.10;;
2898;SDS011;1459;50.864;6.438;2022-09-03T11:43:10;4.20;;;2.20;;
2898;SDS011;1459;50.864;6.438;2022-09-03T11:45:39;5.97;;;2.40;;
2898;SDS011;1459;50.864;6.438;2022-09-03T11:48:29;3.23;;;2.03;;
2898;SDS011;1459;50.864;6.438;2022-09-03T11:51:02;5.13;;;2.50;;
2898;SDS011;1459;50.864;6.438;2022-09-03T11:53:34;5.03;;;2.27;;
2898;SDS011;1459;50.864;6.438;2022-09-03T11:56:16;7.27;;;2.33;;
2898;SDS011;1459;50.864;6.438;2022-09-03T11:58:45;5.60;;;2.70;;
2898;SDS011;1459;50.864;6.438;2022-09-03T12:01:13;4.53;;;2.60;;
2898;SDS011;1459;50.864;6.438;2022-09-03T12:03:42;3.63;;;2.40;;
2898;SDS011;1459;50.864;6.438;2022-09-03T12:09:19;6.00;;;2.73;;
2898;SDS011;1459;50.864;6.438;2022-09-03T12:12:15;5.87;;;2.77;;
2898;SDS011;1459;50.864;6.438;2022-09-03T12:15:02;4.00;;;2.03;;
2898;SDS011;1459;50.864;6.438;2022-09-03T12:17:39;4.20;;;2.50;;
2898;SDS011;1459;50.864;6.438;2022-09-03T12:20:36;3.97;;;2.70;;
2898;SDS011;1459;50.864;6.438;2022-09-03T12:23:04;3.90;;;2.50;;
2898;SDS011;1459;50.864;6.438;2022-09-03T12:25:32;7.32;;;2.30;;
2898;SDS011;1459;50.864;6.438;2022-09-03T12:28:02;4.27;;;2.37;;
2898;SDS011;1459;50.864;6.438;2022-09-03T12:30:52;7.13;;;2.70;;
2898;SDS011;1459;50.864;6.438;2022-09-03T12:33:20;4.30;;;2.77;;
2898;SDS011;1459;50.864;6.438;2022-09-03T12:35:54;4.33;;;2.43;;
2898;SDS011;1459;50.864;6.438;2022-09-03T12:38:24;5.87;;;2.63;;
2898;SDS011;1459;50.864;6.438;2022-09-03T12:40:57;3.77;;;2.90;;
2898;SDS011;1459;50.864;6.438;2022-09-03T12:46:18;2.40;;;2.20;;
2898;SDS011;1459;50.864;6.438;2022-09-03T12:48:59;4.93;;;2.30;;
2898;SDS011;1459;50.864;6.438;2022-09-03T12:51:37;3.40;;;3.00;;
2898;SDS011;1459;50.864;6.438;2022-09-03T12:54:06;3.80;;;2.77;;
2898;SDS011;1459;50.864;6.438;2022-09-03T12:56:40;3.90;;;2.30;;
2898;SDS011;1459;50.864;6.438;2022-09-03T12:59:11;4.03;;;2.60;;
2898;SDS011;1459;50.864;6.438;2022-09-03T13:01:45;7.28;;;2.35;;
2898;SDS011;1459;50.864;6.438;2022-09-03T13:04:15;7.90;;;3.43;;
2898;SDS011;1459;50.864;6.438;2022-09-03T13:06:46;2.77;;;2.57;;
2898;SDS011;1459;50.864;6.438;2022-09-03T13:09:18;5.80;;;3.00;;
2898;SDS011;1459;50.864;6.438;2022-09-03T13:11:50;3.30;;;2.80;;
2898;SDS011;1459;50.864;6.438;2022-09-03T13:14:28;4.80;;;3.10;;
2898;SDS011;1459;50.864;6.438;2022-09-03T13:17:01;5.30;;;3.00;;
2898;SDS011;1459;50.864;6.438;2022-09-03T13:19:43;3.73;;;2.50;;
2898;SDS011;1459;50.864;6.438;2022-09-03T13:25:13;3.30;;;2.90;;
2898;SDS011;1459;50.864;6.438;2022-09-03T13:27:44;2.50;;;2.30;;
2898;SDS011;1459;50.864;6.438;2022-09-03T13:30:20;4.33;;;2.40;;
2898;SDS011;1459;50.864;6.438;2022-09-03T13:32:50;4.90;;;3.10;;
2898;SDS011;1459;50.864;6.438;2022-09-03T13:35:29;3.50;;;2.60;;
2898;SDS011;1459;50.864;6.438;2022-09-03T13:38:05;2.80;;;2.60;;
2898;SDS011;1459;50.864;6.438;2022-09-03T13:40:44;2.93;;;2.60;;
2898;SDS011;1459;50.864;6.438;2022-09-03T13:43:19;4.67;;;2.67;;
2898;SDS011;1459;50.864;6.438;2022-09-03T13:45:56;2.30;;;2.10;;
2898;SDS011;1459;50.864;6.438;2022-09-03T13:48:28;4.93;;;2.40;;
2898;SDS011;1459;50.864;6.438;2022-09-03T13:51:18;3.10;;;2.80;;
2898;SDS011;1459;50.864;6.438;2022-09-03T13:53:56;3.17;;;2.90;;
2898;SDS011;1459;50.864;6.438;2022-09-03T13:56:35;3.67;;;2.20;;
2898;SDS011;1459;50.864;6.438;2022-09-03T13:59:10;5.80;;;2.50;;
2898;SDS011;1459;50.864;6.438;2022-09-03T14:01:49;3.77;;;2.70;;
2898;SDS011;1459;50.864;6.438;2022-09-03T14:04:27;3.47;;;2.73;;
2898;SDS011;1459;50.864;6.438;2022-09-03T14:07:00;3.60;;;2.50;;
2898;SDS011;1459;50.864;6.438;2022-09-03T14:09:33;5.27;;;3.03;;
2898;SDS011;1459;50.864;6.438;2022-09-03T14:12:09;3.80;;;2.90;;
2898;SDS011;1459;50.864;6.438;2022-09-03T14:14:44;3.50;;;2.93;;
2898;SDS011;1459;50.864;6.438;2022-09-03T14:17:22;2.73;;;2.50;;
2898;SDS011;1459;50.864;6.438;2022-09-03T14:19:59;4.27;;;2.83;;
2898;SDS011;1459;50.864;6.438;2022-09-03T14:22:29;3.60;;;2.73;;
2898;SDS011;1459;50.864;6.438;2022-09-03T14:25:12;3.73;;;2.83;;
2898;SDS011;1459;50.864;6.438;2022-09-03T14:27:42;3.27;;;2.90;;
2898;SDS011;1459;50.864;6.438;2022-09-03T14:30:16;2.87;;;2.67;;
2898;SDS011;1459;50.864;6.438;2022-09-03T14:32:52;2.80;;;2.60;;
2898;SDS011;1459;50.864;6.438;2022-09-03T14:35:30;2.63;;;2.20;;
2898;SDS011;1459;50.864;6.438;2022-09-03T14:41:04;3.33;;;2.70;;
2898;SDS011;1459;50.864;6.438;2022-09-03T14:43:46;4.07;;;2.63;;
2898;SDS011;1459;50.864;6.438;2022-09-03T14:46:41;3.03;;;2.30;;
2898;SDS011;1459;50.864;6.438;2022-09-03T14:52:21;2.50;;;2.30;;
2898;SDS011;1459;50.864;6.438;2022-09-03T14:55:06;2.50;;;2.30;;
2898;SDS011;1459;50.864;6.438;2022-09-03T14:57:43;2.37;;;2.17;;
2898;SDS011;1459;50.864;6.438;2022-09-03T15:00:21;4.13;;;2.50;;
2898;SDS011;1459;50.864;6.438;2022-09-03T15:06:03;5.10;;;2.73;;
2898;SDS011;1459;50.864;6.438;2022-09-03T15:08:49;2.80;;;2.50;;
2898;SDS011;1459;50.864;6.438;2022-09-03T15:11:24;3.13;;;2.83;;
2898;SDS011;1459;50.864;6.438;2022-09-03T15:13:59;2.00;;;1.80;;
2898;SDS011;1459;50.864;6.438;2022-09-03T15:16:35;2.70;;;2.00;;
2898;SDS011;1459;50.864;6.438;2022-09-03T15:19:13;2.20;;;2.00;;
2898;SDS011;1459;50.864;6.438;2022-09-03T15:21:57;2.03;;;1.73;;
2898;SDS011;1459;50.864;6.438;2022-09-03T15:24:38;2.13;;;1.93;;
2898;SDS011;1459;50.864;6.438;2022-09-03T15:27:18;2.00;;;1.73;;
2898;SDS011;1459;50.864;6.438;2022-09-03T15:30:07;2.40;;;2.10;;
2898;SDS011;1459;50.864;6.438;2022-09-03T15:32:42;1.90;;;1.70;;
2898;SDS011;1459;50.864;6.438;2022-09-03T15:35:18;2.70;;;2.13;;
2898;SDS011;1459;50.864;6.438;2022-09-03T15:38:08;2.57;;;2.00;;
2898;SDS011;1459;50.864;6.438;2022-09-03T15:40:40;2.23;;;2.03;;
2898;SDS011;1459;50.864;6.438;2022-09-03T15:43:16;4.00;;;2.40;;
2898;SDS011;1459;50.864;6.438;2022-09-03T15:45:50;2.80;;;2.00;;
2898;SDS011;1459;50.864;6.438;2022-09-03T15:48:26;3.90;;;2.30;;
2898;SDS011;1459;50.864;6.438;2022-09-03T15:51:04;2.23;;;1.80;;
2898;SDS011;1459;50.864;6.438;2022-09-03T15:53:40;2.67;;;2.40;;
2898;SDS011;1459;50.864;6.438;2022-09-03T15:56:21;2.87;;;2.60;;
2898;SDS011;1459;50.864;6.438;2022-09-03T15:58:58;5.80;;;2.20;;
2898;SDS011;1459;50.864;6.438;2022-09-03T16:01:34;2.50;;;2.30;;
2898;SDS011;1459;50.864;6.438;2022-09-03T16:07:02;2.33;;;2.13;;
2898;SDS011;1459;50.864;6.438;2022-09-03T16:09:44;2.87;;;2.50;;
2898;SDS011;1459;50.864;6.438;2022-09-03T16:12:20;2.33;;;2.13;;
2898;SDS011;1459;50.864;6.438;2022-09-03T16:14:59;4.30;;;2.50;;
2898;SDS011;1459;50.864;6.438;2022-09-03T16:17:32;3.43;;;2.57;;